Time;durP1;ratioP1;P1;durP2;ratioP2;P2;SDS_P1;SDS_P2;PMS_P1;PMS_P2;Temp;Humidity;BMP_temperature;BMP_pressure;BME280_temperature;BME280_humidity;BME280_pressure;Samples;Min_cycle;Max_cycle;Signal;HPM_P1;HPM_P2
2023/12/13 00:02:16;;;;;;;8.40;1.70;;;;;;;;;;5040468;28;20207;-67
2023/12/13 00:04:43;;;;;;;6.33;1.30;;;;;;;;;;5041054;28;20295;-67
2023/12/13 00:07:11;;;;;;;6.33;1.57;;;;;;;;;;5042263;28;20208;-66
2023/12/13 00:09:39;;;;;;;5.27;2.10;;;;;;;;;;5039541;28;20203;-66
2023/12/13 00:12:06;;;;;;;6.47;2.00;;;;;;;;;;5036559;28;20214;-65
2023/12/13 00:14:33;;;;;;;4.43;1.33;;;;;;;;;;5040289;28;20236;-67
2023/12/13 00:17:00;;;;;;;8.30;2.10;;;;;;;;;;5036616;28;20395;-66
2023/12/13 00:19:28;;;;;;;6.30;1.87;;;;;;;;;;5041429;28;20230;-66
2023/12/13 00:21:55;;;;;;;8.20;2.40;;;;;;;;;;5042303;28;20203;-66
2023/12/13 00:24:23;;;;;;;5.30;1.57;;;;;;;;;;5041984;28;20208;-66
2023/12/13 00:26:50;;;;;;;7.60;1.63;;;;;;;;;;5039759;28;20215;-66
2023/12/13 00:29:18;;;;;;;8.30;1.80;;;;;;;;;;5042422;28;20199;-66
2023/12/13 00:31:45;;;;;;;5.40;1.40;;;;;;;;;;5039556;28;20656;-66
2023/12/13 00:34:12;;;;;;;5.37;1.60;;;;;;;;;;5036560;28;20310;-67
2023/12/13 00:36:39;;;;;;;6.87;1.93;;;;;;;;;;5040050;28;20228;-66
2023/12/13 00:39:06;;;;;;;7.23;1.63;;;;;;;;;;5041948;28;20227;-67
2023/12/13 00:41:35;;;;;;;3.80;1.60;;;;;;;;;;5038801;28;20204;-66
2023/12/13 00:44:03;;;;;;;8.00;1.90;;;;;;;;;;5043242;28;20223;-66
2023/12/13 00:46:30;;;;;;;4.17;1.30;;;;;;;;;;5036439;28;20299;-67
2023/12/13 00:48:57;;;;;;;4.80;1.63;;;;;;;;;;5040368;28;20207;-66
2023/12/13 00:51:24;;;;;;;5.30;1.90;;;;;;;;;;5039585;28;20211;-66
2023/12/13 00:53:51;;;;;;;5.37;1.40;;;;;;;;;;5045225;28;20210;-65
2023/12/13 00:56:18;;;;;;;4.63;1.60;;;;;;;;;;5045157;28;20291;-66
2023/12/13 00:58:47;;;;;;;5.90;1.80;;;;;;;;;;5044695;28;20215;-66
2023/12/13 01:01:16;;;;;;;7.97;2.00;;;;;;;;;;5041159;28;20199;-66
2023/12/13 01:03:43;;;;;;;8.97;1.60;;;;;;;;;;5040568;28;20199;-67
2023/12/13 01:06:10;;;;;;;6.00;1.67;;;;;;;;;;5044460;28;20207;-67
2023/12/13 01:08:38;;;;;;;5.23;1.70;;;;;;;;;;5046334;28;20246;-66
2023/12/13 01:11:08;;;;;;;9.57;1.97;;;;;;;;;;5047466;28;20199;-67
2023/12/13 01:13:35;;;;;;;7.90;1.70;;;;;;;;;;5040116;28;20209;-67
2023/12/13 01:16:04;;;;;;;5.93;1.80;;;;;;;;;;5049547;28;20196;-67
2023/12/13 01:18:31;;;;;;;6.33;1.70;;;;;;;;;;5046069;28;20200;-66
2023/12/13 01:20:58;;;;;;;6.60;1.57;;;;;;;;;;5045736;28;20227;-66
2023/12/13 01:23:27;;;;;;;7.43;2.10;;;;;;;;;;5043495;28;20221;-67
2023/12/13 01:25:54;;;;;;;13.23;2.20;;;;;;;;;;5049852;28;20231;-67
2023/12/13 01:28:21;;;;;;;9.03;2.03;;;;;;;;;;5043714;28;20211;-66
2023/12/13 01:30:48;;;;;;;5.40;1.90;;;;;;;;;;5046483;28;20204;-66
2023/12/13 01:33:17;;;;;;;6.00;1.80;;;;;;;;;;5044682;28;20204;-66
2023/12/13 01:35:44;;;;;;;10.13;2.30;;;;;;;;;;5045333;28;20208;-66
2023/12/13 01:38:11;;;;;;;6.33;1.67;;;;;;;;;;5047117;28;20265;-66
2023/12/13 01:40:38;;;;;;;5.67;1.73;;;;;;;;;;5043181;28;20215;-67
2023/12/13 01:43:05;;;;;;;6.90;1.70;;;;;;;;;;5042968;28;20459;-66
2023/12/13 01:45:32;;;;;;;6.37;1.50;;;;;;;;;;5044936;28;20229;-67
2023/12/13 01:48:00;;;;;;;5.73;1.40;;;;;;;;;;5044106;28;20199;-66
2023/12/13 01:50:29;;;;;;;8.97;1.80;;;;;;;;;;5037337;28;20279;-66
2023/12/13 01:52:56;;;;;;;5.00;1.50;;;;;;;;;;5043265;28;20211;-66
2023/12/13 01:55:23;;;;;;;9.13;1.67;;;;;;;;;;5045811;28;20212;-66
2023/12/13 01:57:50;;;;;;;7.43;1.90;;;;;;;;;;5036330;28;20200;-66
2023/12/13 02:00:18;;;;;;;5.33;1.80;;;;;;;;;;5042470;28;20222;-66
2023/12/13 02:02:46;;;;;;;5.40;1.77;;;;;;;;;;5041580;28;20204;-66
2023/12/13 02:05:14;;;;;;;5.80;1.90;;;;;;;;;;5040944;28;20199;-67
2023/12/13 02:07:42;;;;;;;7.00;1.60;;;;;;;;;;5045904;28;20252;-66
2023/12/13 02:10:10;;;;;;;8.23;1.97;;;;;;;;;;5044754;28;20195;-66
2023/12/13 02:12:37;;;;;;;5.13;2.00;;;;;;;;;;5038541;28;20239;-66
2023/12/13 02:15:05;;;;;;;8.00;2.37;;;;;;;;;;5043816;28;20227;-67
2023/12/13 02:17:32;;;;;;;9.33;2.00;;;;;;;;;;5044367;28;20200;-66
2023/12/13 02:19:59;;;;;;;5.87;1.80;;;;;;;;;;5042163;28;20216;-66
2023/12/13 02:22:28;;;;;;;5.53;1.70;;;;;;;;;;5040090;28;20204;-66
2023/12/13 02:24:57;;;;;;;7.13;1.90;;;;;;;;;;5043279;28;20204;-67
2023/12/13 02:27:28;;;;;;;6.70;1.90;;;;;;;;;;5041906;28;20199;-66
2023/12/13 02:29:55;;;;;;;7.87;2.10;;;;;;;;;;5039337;28;20226;-67
2023/12/13 02:32:22;;;;;;;6.13;1.67;;;;;;;;;;5042659;28;20230;-66
2023/12/13 02:34:49;;;;;;;11.00;2.20;;;;;;;;;;5039833;28;20755;-67
2023/12/13 02:37:16;;;;;;;8.93;2.10;;;;;;;;;;5039286;28;20199;-66
2023/12/13 02:39:45;;;;;;;10.20;2.23;;;;;;;;;;5042178;28;20219;-66
2023/12/13 02:42:12;;;;;;;11.63;2.00;;;;;;;;;;5041563;28;20206;-67
2023/12/13 02:44:42;;;;;;;9.80;2.13;;;;;;;;;;5041646;28;20204;-66
2023/12/13 02:47:10;;;;;;;9.23;2.20;;;;;;;;;;5043693;28;20207;-66
2023/12/13 02:49:37;;;;;;;9.57;2.53;;;;;;;;;;5038971;28;20200;-66
2023/12/13 02:52:04;;;;;;;9.40;2.57;;;;;;;;;;5042148;28;20221;-66
2023/12/13 02:54:31;;;;;;;7.70;2.10;;;;;;;;;;5041891;28;20230;-66
2023/12/13 02:57:00;;;;;;;8.77;2.00;;;;;;;;;;5042955;28;20206;-66
2023/12/13 02:59:27;;;;;;;11.83;2.70;;;;;;;;;;5043144;28;20210;-66
2023/12/13 03:01:54;;;;;;;11.10;2.23;;;;;;;;;;5044109;28;20223;-65
2023/12/13 03:04:21;;;;;;;8.80;2.10;;;;;;;;;;5041420;28;20230;-66
2023/12/13 03:06:49;;;;;;;7.10;2.10;;;;;;;;;;5040737;28;20215;-66
2023/12/13 03:09:16;;;;;;;9.20;2.10;;;;;;;;;;5040537;28;20382;-66
2023/12/13 03:11:43;;;;;;;11.10;2.17;;;;;;;;;;5040114;28;20192;-67
2023/12/13 03:14:11;;;;;;;10.17;2.37;;;;;;;;;;5042486;28;20237;-66
2023/12/13 03:16:39;;;;;;;10.57;2.23;;;;;;;;;;5041696;28;20203;-66
2023/12/13 03:19:06;;;;;;;8.27;2.50;;;;;;;;;;5047654;28;20208;-66
2023/12/13 03:21:33;;;;;;;9.50;2.40;;;;;;;;;;5041390;28;22470;-66
2023/12/13 03:24:00;;;;;;;7.57;1.83;;;;;;;;;;5042593;28;20203;-66
2023/12/13 03:26:27;;;;;;;11.03;2.07;;;;;;;;;;5045099;28;20383;-66
2023/12/13 03:28:54;;;;;;;10.60;2.40;;;;;;;;;;5040468;28;20207;-66
2023/12/13 03:31:23;;;;;;;9.03;2.67;;;;;;;;;;5041689;28;20199;-66
2023/12/13 03:33:50;;;;;;;7.63;2.40;;;;;;;;;;5042773;28;20203;-66
2023/12/13 03:36:18;;;;;;;10.27;2.47;;;;;;;;;;5037933;28;20208;-67
2023/12/13 03:38:45;;;;;;;11.27;2.40;;;;;;;;;;5044339;28;20291;-66
2023/12/13 03:41:12;;;;;;;12.00;2.90;;;;;;;;;;5044359;28;20223;-66
2023/12/13 03:43:39;;;;;;;12.50;2.37;;;;;;;;;;5039914;28;20208;-67
2023/12/13 03:46:06;;;;;;;8.17;2.30;;;;;;;;;;5045909;28;20290;-67
2023/12/13 03:48:35;;;;;;;9.50;2.10;;;;;;;;;;5039789;28;20210;-66
2023/12/13 03:51:02;;;;;;;10.73;2.60;;;;;;;;;;5043461;28;20230;-66
2023/12/13 03:53:29;;;;;;;10.17;2.60;;;;;;;;;;5037733;28;20200;-66
2023/12/13 03:55:56;;;;;;;11.33;2.20;;;;;;;;;;5039895;28;20330;-65
2023/12/13 03:58:23;;;;;;;9.00;2.30;;;;;;;;;;5044277;28;20222;-67
2023/12/13 04:00:51;;;;;;;9.03;2.13;;;;;;;;;;5040807;28;20219;-67
2023/12/13 04:03:18;;;;;;;8.10;1.97;;;;;;;;;;5041665;28;20211;-66
2023/12/13 04:05:46;;;;;;;11.90;2.37;;;;;;;;;;5041391;28;20218;-67
2023/12/13 04:08:14;;;;;;;9.13;2.50;;;;;;;;;;5042909;28;20196;-65
2023/12/13 04:10:41;;;;;;;8.00;2.10;;;;;;;;;;5038089;28;20247;-66
2023/12/13 04:13:08;;;;;;;10.13;2.20;;;;;;;;;;5037165;28;20206;-66
2023/12/13 04:15:35;;;;;;;12.17;2.50;;;;;;;;;;5035280;28;20238;-67
2023/12/13 04:18:03;;;;;;;7.87;2.10;;;;;;;;;;5043767;28;20207;-66
2023/12/13 04:20:30;;;;;;;11.10;2.20;;;;;;;;;;5040577;28;20306;-66
2023/12/13 04:22:59;;;;;;;11.00;2.17;;;;;;;;;;5043019;28;20208;-66
2023/12/13 04:25:26;;;;;;;9.60;2.07;;;;;;;;;;5040406;28;20213;-66
2023/12/13 04:27:53;;;;;;;9.07;1.97;;;;;;;;;;5035912;28;20203;-66
2023/12/13 04:30:20;;;;;;;11.33;2.40;;;;;;;;;;5040316;28;20204;-68
2023/12/13 04:32:47;;;;;;;11.60;2.30;;;;;;;;;;5044251;28;20204;-66
2023/12/13 04:35:14;;;;;;;10.03;2.30;;;;;;;;;;5037570;28;20210;-67
2023/12/13 04:37:42;;;;;;;7.87;2.07;;;;;;;;;;5037801;28;20202;-66
2023/12/13 04:40:11;;;;;;;8.03;1.90;;;;;;;;;;5040311;28;20207;-67
2023/12/13 04:42:38;;;;;;;11.07;2.00;;;;;;;;;;5040489;28;20269;-66
2023/12/13 04:45:05;;;;;;;8.10;1.80;;;;;;;;;;5037242;28;20196;-67
2023/12/13 04:47:32;;;;;;;8.30;2.20;;;;;;;;;;5036502;28;20270;-67
2023/12/13 04:49:59;;;;;;;12.27;2.17;;;;;;;;;;5039627;28;20210;-66
2023/12/13 04:52:26;;;;;;;11.40;2.23;;;;;;;;;;5036352;28;20217;-66
2023/12/13 04:54:54;;;;;;;9.83;2.00;;;;;;;;;;5034458;28;20247;-66
2023/12/13 04:57:22;;;;;;;13.13;2.13;;;;;;;;;;5038901;28;20207;-68
2023/12/13 04:59:49;;;;;;;7.70;2.40;;;;;;;;;;5038985;28;20200;-67
2023/12/13 05:02:16;;;;;;;7.87;2.00;;;;;;;;;;5037189;28;20229;-67
2023/12/13 05:04:44;;;;;;;7.97;1.93;;;;;;;;;;5036784;28;21163;-67
2023/12/13 05:07:11;;;;;;;9.57;1.93;;;;;;;;;;5041763;28;20208;-67
2023/12/13 05:09:38;;;;;;;5.97;1.60;;;;;;;;;;5041399;28;20214;-66
2023/12/13 05:12:06;;;;;;;4.10;1.60;;;;;;;;;;5040788;28;20242;-67
2023/12/13 05:14:34;;;;;;;5.43;1.40;;;;;;;;;;5041474;28;20229;-67
2023/12/13 05:17:02;;;;;;;6.20;1.60;;;;;;;;;;5040936;28;20219;-67
2023/12/13 05:19:29;;;;;;;4.70;1.43;;;;;;;;;;5042638;28;20290;-66
2023/12/13 05:21:56;;;;;;;4.77;1.43;;;;;;;;;;5042468;28;20224;-67
2023/12/13 05:24:23;;;;;;;7.93;1.70;;;;;;;;;;5042952;28;20208;-66
2023/12/13 05:26:51;;;;;;;4.53;1.40;;;;;;;;;;5038039;28;20239;-66
2023/12/13 05:29:18;;;;;;;4.37;1.93;;;;;;;;;;5044639;28;20291;-66
2023/12/13 05:31:46;;;;;;;6.40;1.53;;;;;;;;;;5041437;28;20204;-66
2023/12/13 05:34:14;;;;;;;5.03;1.13;;;;;;;;;;5037854;28;20210;-66
2023/12/13 05:36:41;;;;;;;6.70;2.07;;;;;;;;;;5039364;28;20322;-66
2023/12/13 05:39:08;;;;;;;4.80;1.13;;;;;;;;;;5045486;28;20298;-66
2023/12/13 05:41:36;;;;;;;4.43;1.47;;;;;;;;;;5042582;28;20223;-67
2023/12/13 05:44:03;;;;;;;3.90;1.37;;;;;;;;;;5045396;28;20222;-66
2023/12/13 05:46:34;;;;;;;4.13;1.03;;;;;;;;;;5046602;28;20208;-66
2023/12/13 05:49:05;;;;;;;4.40;1.30;;;;;;;;;;5044265;28;20320;-66
2023/12/13 05:51:32;;;;;;;4.17;1.30;;;;;;;;;;5047211;28;20206;-66
2023/12/13 05:53:59;;;;;;;4.17;1.27;;;;;;;;;;5044971;28;20210;-66
2023/12/13 05:56:27;;;;;;;3.93;1.40;;;;;;;;;;5044380;28;20208;-66
2023/12/13 05:58:54;;;;;;;3.20;1.47;;;;;;;;;;5039823;28;20277;-66
2023/12/13 06:01:22;;;;;;;6.87;1.40;;;;;;;;;;5035895;28;20266;-66
2023/12/13 06:03:49;;;;;;;4.40;1.40;;;;;;;;;;5041280;28;20211;-67
2023/12/13 06:06:18;;;;;;;4.70;1.40;;;;;;;;;;5042848;28;20201;-66
2023/12/13 06:08:46;;;;;;;4.17;1.47;;;;;;;;;;5042510;28;20204;-66
2023/12/13 06:11:13;;;;;;;5.53;1.50;;;;;;;;;;5043755;28;20223;-66
2023/12/13 06:13:41;;;;;;;6.87;1.60;;;;;;;;;;5043779;28;20274;-66
2023/12/13 06:16:12;;;;;;;7.33;1.73;;;;;;;;;;5040806;28;20231;-66
2023/12/13 06:18:39;;;;;;;6.33;1.60;;;;;;;;;;5047192;28;20215;-66
2023/12/13 06:21:07;;;;;;;6.23;1.50;;;;;;;;;;5045855;28;20232;-66
2023/12/13 06:23:36;;;;;;;6.33;1.20;;;;;;;;;;5040468;28;20203;-65
2023/12/13 06:26:03;;;;;;;5.03;1.27;;;;;;;;;;5044171;28;20196;-67
2023/12/13 06:28:30;;;;;;;4.33;1.23;;;;;;;;;;5041046;28;20196;-66
2023/12/13 06:30:58;;;;;;;4.27;1.30;;;;;;;;;;5045733;28;20262;-66
2023/12/13 06:33:25;;;;;;;4.57;1.77;;;;;;;;;;5040680;28;20208;-67
2023/12/13 06:35:53;;;;;;;2.40;1.10;;;;;;;;;;5041795;28;20207;-66
2023/12/13 06:38:20;;;;;;;2.60;0.80;;;;;;;;;;5036696;28;20212;-66
2023/12/13 06:40:50;;;;;;;1.53;0.90;;;;;;;;;;5045655;28;20211;-66
2023/12/13 06:43:17;;;;;;;1.63;0.90;;;;;;;;;;5044245;28;20204;-67
2023/12/13 06:45:44;;;;;;;2.00;0.93;;;;;;;;;;5041535;28;20200;-67
2023/12/13 06:48:12;;;;;;;1.70;0.90;;;;;;;;;;5043393;28;20196;-66
2023/12/13 06:50:39;;;;;;;1.90;0.80;;;;;;;;;;5045605;28;20274;-67
2023/12/13 06:53:06;;;;;;;4.87;1.10;;;;;;;;;;5045675;28;20200;-66
2023/12/13 06:55:34;;;;;;;2.33;1.03;;;;;;;;;;5040571;28;20196;-66
2023/12/13 06:58:02;;;;;;;2.77;0.90;;;;;;;;;;5043059;28;20269;-67
2023/12/13 07:00:29;;;;;;;3.13;1.20;;;;;;;;;;5041721;28;20208;-62
2023/12/13 07:02:57;;;;;;;2.17;1.17;;;;;;;;;;5044074;28;20282;-62
2023/12/13 07:05:24;;;;;;;2.87;0.80;;;;;;;;;;5045700;28;20204;-62
2023/12/13 07:07:51;;;;;;;2.70;0.80;;;;;;;;;;5044565;28;20211;-62
2023/12/13 07:10:19;;;;;;;2.57;1.07;;;;;;;;;;5036934;28;20218;-62
2023/12/13 07:12:46;;;;;;;2.73;0.77;;;;;;;;;;5048561;28;20204;-62
2023/12/13 07:15:15;;;;;;;3.03;1.43;;;;;;;;;;5046252;28;20239;-61
2023/12/13 07:17:43;;;;;;;2.93;0.93;;;;;;;;;;5042618;28;20203;-61
2023/12/13 07:20:11;;;;;;;3.20;1.20;;;;;;;;;;5043164;28;20206;-62
2023/12/13 07:22:39;;;;;;;2.13;1.10;;;;;;;;;;5039704;28;20304;-61
2023/12/13 07:25:06;;;;;;;2.47;1.00;;;;;;;;;;5040021;28;20207;-62
2023/12/13 07:27:34;;;;;;;3.00;1.10;;;;;;;;;;5047111;28;20283;-62
2023/12/13 07:30:01;;;;;;;4.67;1.30;;;;;;;;;;5040865;28;20239;-61
2023/12/13 07:32:31;;;;;;;5.40;1.10;;;;;;;;;;5043495;28;20203;-62
2023/12/13 07:34:58;;;;;;;3.30;1.50;;;;;;;;;;5040886;28;20271;-62
2023/12/13 07:37:25;;;;;;;1.57;1.03;;;;;;;;;;5044422;28;20203;-62
2023/12/13 07:39:52;;;;;;;3.60;1.30;;;;;;;;;;5044951;28;20203;-62
2023/12/13 07:42:20;;;;;;;3.00;1.30;;;;;;;;;;5041559;28;20224;-62
2023/12/13 07:44:47;;;;;;;3.70;1.10;;;;;;;;;;5039842;28;20453;-63
2023/12/13 07:47:14;;;;;;;3.00;1.20;;;;;;;;;;5039664;28;20205;-62
2023/12/13 07:49:43;;;;;;;4.73;1.23;;;;;;;;;;5043490;28;20287;-62
2023/12/13 07:52:12;;;;;;;2.37;1.37;;;;;;;;;;5039517;28;20204;-62
2023/12/13 07:54:40;;;;;;;3.03;1.40;;;;;;;;;;5038302;28;20199;-62
2023/12/13 07:57:07;;;;;;;4.10;1.10;;;;;;;;;;5039016;28;20208;-62
2023/12/13 07:59:35;;;;;;;2.63;1.37;;;;;;;;;;5039369;28;20211;-62
2023/12/13 08:02:02;;;;;;;3.97;1.60;;;;;;;;;;5041426;28;20222;-62
2023/12/13 08:04:32;;;;;;;3.00;1.20;;;;;;;;;;5041866;28;20297;-61
2023/12/13 08:07:00;;;;;;;5.50;1.40;;;;;;;;;;5046475;28;20199;-63
2023/12/13 08:09:28;;;;;;;3.10;1.20;;;;;;;;;;5044480;28;20198;-62
2023/12/13 08:11:55;;;;;;;4.60;1.27;;;;;;;;;;5040638;28;20253;-67
2023/12/13 08:14:25;;;;;;;4.20;1.20;;;;;;;;;;5041203;28;20244;-67
2023/12/13 08:16:52;;;;;;;4.10;1.20;;;;;;;;;;5038702;28;20257;-67
2023/12/13 08:19:20;;;;;;;4.60;1.40;;;;;;;;;;5038661;28;20227;-67
2023/12/13 08:21:47;;;;;;;5.17;1.60;;;;;;;;;;5035756;28;20234;-67
2023/12/13 08:24:16;;;;;;;2.23;1.00;;;;;;;;;;5033484;28;20214;-67
2023/12/13 08:26:43;;;;;;;2.57;1.40;;;;;;;;;;5040902;28;20480;-67
2023/12/13 08:29:10;;;;;;;5.57;1.37;;;;;;;;;;5044330;28;20214;-66
2023/12/13 08:31:38;;;;;;;2.43;1.30;;;;;;;;;;5041815;28;20399;-67
2023/12/13 08:34:06;;;;;;;3.63;1.30;;;;;;;;;;5039921;28;20203;-67
2023/12/13 08:36:33;;;;;;;5.27;1.70;;;;;;;;;;5044355;28;20207;-67
2023/12/13 08:39:02;;;;;;;6.30;1.70;;;;;;;;;;5042636;28;20208;-67
2023/12/13 08:41:32;;;;;;;10.27;2.10;;;;;;;;;;5041804;28;20291;-66
2023/12/13 08:43:59;;;;;;;5.03;1.60;;;;;;;;;;5040983;28;20262;-67
2023/12/13 08:46:27;;;;;;;6.07;1.60;;;;;;;;;;5041523;28;20196;-68
2023/12/13 08:48:54;;;;;;;3.03;1.40;;;;;;;;;;5036487;28;20207;-67
2023/12/13 08:51:21;;;;;;;2.43;1.27;;;;;;;;;;5032773;28;20208;-67
2023/12/13 08:53:54;;;;;;;6.90;1.67;;;;;;;;;;5040556;28;20266;-67
2023/12/13 08:56:21;;;;;;;5.13;1.40;;;;;;;;;;5045980;28;20249;-67
2023/12/13 08:58:50;;;;;;;5.30;1.60;;;;;;;;;;5040695;28;20317;-66
2023/12/13 09:01:18;;;;;;;5.63;1.47;;;;;;;;;;5040421;28;20215;-67
2023/12/13 09:03:45;;;;;;;3.60;1.47;;;;;;;;;;5039944;28;20206;-68
2023/12/13 09:06:14;;;;;;;3.60;1.30;;;;;;;;;;5040776;28;20208;-67
2023/12/13 09:08:41;;;;;;;6.10;1.80;;;;;;;;;;5041530;28;20676;-67
2023/12/13 09:11:09;;;;;;;6.63;1.50;;;;;;;;;;5040259;28;20207;-66
2023/12/13 09:13:36;;;;;;;5.77;1.63;;;;;;;;;;5044940;28;20208;-67
2023/12/13 09:16:05;;;;;;;7.53;1.70;;;;;;;;;;5043667;28;20203;-66
2023/12/13 09:18:33;;;;;;;5.53;1.77;;;;;;;;;;5049100;28;20239;-67
2023/12/13 09:21:01;;;;;;;5.50;1.90;;;;;;;;;;5043909;28;20208;-62
2023/12/13 09:23:28;;;;;;;5.00;1.83;;;;;;;;;;5046247;28;20227;-63
2023/12/13 09:25:56;;;;;;;7.23;1.47;;;;;;;;;;5044703;28;20212;-61
2023/12/13 09:28:24;;;;;;;8.07;1.90;;;;;;;;;;5045343;28;20207;-62
2023/12/13 09:30:51;;;;;;;5.70;2.00;;;;;;;;;;5047095;28;20487;-62
2023/12/13 09:33:20;;;;;;;4.20;1.73;;;;;;;;;;5048517;28;20218;-62
2023/12/13 09:35:49;;;;;;;4.33;1.77;;;;;;;;;;5046956;28;20204;-63
2023/12/13 09:38:17;;;;;;;4.37;1.80;;;;;;;;;;5047769;28;20210;-61
2023/12/13 09:40:44;;;;;;;4.03;1.90;;;;;;;;;;5042990;28;20208;-62
2023/12/13 09:43:12;;;;;;;4.47;1.70;;;;;;;;;;5044945;28;20227;-62
2023/12/13 09:45:41;;;;;;;5.73;1.73;;;;;;;;;;5045186;28;20212;-62
2023/12/13 09:48:08;;;;;;;5.53;1.70;;;;;;;;;;5044905;28;20219;-63
2023/12/13 09:50:38;;;;;;;9.27;2.10;;;;;;;;;;5043523;28;20204;-63
2023/12/13 09:53:06;;;;;;;5.87;1.73;;;;;;;;;;5044056;28;20219;-62
2023/12/13 09:55:35;;;;;;;5.40;2.00;;;;;;;;;;5045190;28;20197;-62
2023/12/13 09:58:02;;;;;;;5.10;1.97;;;;;;;;;;5039624;28;20204;-63
2023/12/13 10:00:29;;;;;;;8.70;1.93;;;;;;;;;;5045038;28;20219;-62
2023/12/13 10:02:57;;;;;;;9.20;1.97;;;;;;;;;;5053033;28;20219;-62
2023/12/13 10:05:24;;;;;;;7.83;2.07;;;;;;;;;;5038487;28;20215;-62
2023/12/13 10:07:58;;;;;;;7.33;2.10;;;;;;;;;;5044885;28;20210;-62
2023/12/13 10:10:26;;;;;;;7.43;2.57;;;;;;;;;;5044447;28;20211;-62
2023/12/13 10:12:53;;;;;;;4.83;1.87;;;;;;;;;;5040510;28;20214;-61
2023/12/13 10:15:21;;;;;;;5.57;2.17;;;;;;;;;;5039518;28;20238;-62
2023/12/13 10:17:49;;;;;;;5.10;2.03;;;;;;;;;;5045519;28;20200;-62
2023/12/13 10:20:17;;;;;;;7.07;2.50;;;;;;;;;;5045333;28;20211;-62
2023/12/13 10:22:44;;;;;;;12.87;3.00;;;;;;;;;;5044506;28;20236;-61
2023/12/13 10:25:14;;;;;;;6.60;2.57;;;;;;;;;;5041328;28;20211;-62
2023/12/13 10:27:42;;;;;;;7.73;2.23;;;;;;;;;;5042741;28;20207;-62
2023/12/13 10:30:10;;;;;;;7.43;2.00;;;;;;;;;;5041138;28;20201;-62
2023/12/13 10:32:38;;;;;;;6.63;1.90;;;;;;;;;;5049168;28;20227;-62
2023/12/13 10:35:06;;;;;;;9.20;2.30;;;;;;;;;;5046782;28;20211;-62
2023/12/13 10:37:34;;;;;;;5.60;1.70;;;;;;;;;;5043265;28;20216;-62
2023/12/13 10:40:01;;;;;;;7.27;1.87;;;;;;;;;;5044684;28;20200;-62
2023/12/13 10:42:31;;;;;;;4.80;1.70;;;;;;;;;;5037120;28;20216;-62
2023/12/13 10:44:59;;;;;;;6.67;2.10;;;;;;;;;;5044750;28;20206;-62
2023/12/13 10:47:26;;;;;;;7.23;1.70;;;;;;;;;;5041123;28;20222;-62
2023/12/13 10:49:53;;;;;;;6.77;2.03;;;;;;;;;;5046653;28;20200;-62
2023/12/13 10:52:21;;;;;;;7.90;1.83;;;;;;;;;;5040774;28;20224;-61
2023/12/13 10:54:48;;;;;;;5.90;2.03;;;;;;;;;;5047218;28;20211;-62
2023/12/13 10:57:16;;;;;;;6.87;1.90;;;;;;;;;;5041464;28;20307;-62
2023/12/13 10:59:44;;;;;;;4.10;1.70;;;;;;;;;;5044351;28;20207;-62
2023/12/13 11:02:14;;;;;;;8.53;2.07;;;;;;;;;;5042130;28;20210;-62
2023/12/13 11:04:43;;;;;;;7.43;2.00;;;;;;;;;;5047266;28;20295;-62
2023/12/13 11:07:11;;;;;;;6.87;2.00;;;;;;;;;;5042128;28;20203;-62
2023/12/13 11:09:49;;;;;;;7.80;1.90;;;;;;;;;;5041714;28;20223;-62
2023/12/13 11:12:18;;;;;;;7.90;2.47;;;;;;;;;;5037830;28;20208;-62
2023/12/13 11:14:50;;;;;;;8.57;2.10;;;;;;;;;;5045157;28;20247;-62
2023/12/13 11:17:17;;;;;;;4.27;1.60;;;;;;;;;;5046191;28;20195;-62
2023/12/13 11:19:44;;;;;;;7.73;2.10;;;;;;;;;;5041687;28;20196;-63
2023/12/13 11:22:13;;;;;;;6.23;2.10;;;;;;;;;;5043871;28;20208;-61
2023/12/13 11:24:41;;;;;;;7.87;2.07;;;;;;;;;;5046520;28;20265;-62
2023/12/13 11:27:12;;;;;;;3.53;1.63;;;;;;;;;;5043351;28;20208;-62
2023/12/13 11:29:44;;;;;;;4.90;1.73;;;;;;;;;;5043137;28;20308;-61
2023/12/13 11:32:13;;;;;;;6.30;2.23;;;;;;;;;;5043572;28;20238;-61
2023/12/13 11:34:42;;;;;;;9.37;1.83;;;;;;;;;;5042132;28;20208;-61
2023/12/13 11:37:11;;;;;;;8.57;2.27;;;;;;;;;;5043330;28;20208;-62
2023/12/13 11:39:38;;;;;;;5.50;1.90;;;;;;;;;;5043695;28;20274;-62
2023/12/13 11:42:07;;;;;;;7.13;2.00;;;;;;;;;;5040873;28;20231;-62
2023/12/13 11:44:35;;;;;;;9.37;2.07;;;;;;;;;;5045183;28;20207;-62
2023/12/13 11:47:05;;;;;;;6.03;1.57;;;;;;;;;;5041413;28;20211;-62
2023/12/13 11:49:34;;;;;;;7.30;1.83;;;;;;;;;;5040447;28;20207;-61
2023/12/13 11:52:02;;;;;;;6.43;2.00;;;;;;;;;;5038522;28;20203;-62
2023/12/13 11:54:30;;;;;;;8.20;1.93;;;;;;;;;;5044593;28;20207;-62
2023/12/13 11:56:57;;;;;;;9.37;2.20;;;;;;;;;;5044884;28;20433;-61
2023/12/13 11:59:24;;;;;;;7.20;2.20;;;;;;;;;;5043792;28;20273;-63
2023/12/13 12:01:52;;;;;;;6.13;2.30;;;;;;;;;;5040602;28;20226;-62
2023/12/13 12:04:20;;;;;;;6.33;2.20;;;;;;;;;;5038730;28;20229;-62
2023/12/13 12:06:49;;;;;;;9.00;2.20;;;;;;;;;;5042235;28;20200;-62
2023/12/13 12:09:18;;;;;;;7.93;2.50;;;;;;;;;;5040954;28;20267;-62
2023/12/13 12:11:45;;;;;;;6.73;1.93;;;;;;;;;;5038651;28;20379;-62
2023/12/13 12:14:12;;;;;;;4.43;1.60;;;;;;;;;;5037061;28;20239;-62
2023/12/13 12:16:40;;;;;;;6.50;2.07;;;;;;;;;;5039466;28;20215;-62
2023/12/13 12:19:07;;;;;;;7.77;2.23;;;;;;;;;;5041640;28;20213;-61
2023/12/13 12:21:37;;;;;;;5.70;1.70;;;;;;;;;;5042886;28;20239;-62
2023/12/13 12:24:05;;;;;;;4.20;1.90;;;;;;;;;;5034177;28;20223;-62
2023/12/13 12:26:33;;;;;;;5.53;1.97;;;;;;;;;;5031216;28;20195;-62
2023/12/13 12:29:00;;;;;;;5.17;2.00;;;;;;;;;;5027131;28;20302;-61
2023/12/13 12:31:28;;;;;;;6.13;1.93;;;;;;;;;;5026799;28;20219;-62
2023/12/13 12:33:55;;;;;;;5.17;1.60;;;;;;;;;;5029185;28;20207;-61
2023/12/13 12:36:22;;;;;;;6.80;1.87;;;;;;;;;;5030138;28;20215;-63
2023/12/13 12:38:50;;;;;;;8.63;2.20;;;;;;;;;;5030029;28;20275;-63
2023/12/13 12:41:19;;;;;;;5.60;1.67;;;;;;;;;;5026216;28;20223;-62
2023/12/13 12:43:49;;;;;;;5.77;1.80;;;;;;;;;;5023301;28;20224;-61
2023/12/13 12:46:16;;;;;;;7.87;1.90;;;;;;;;;;5031824;28;20533;-62
2023/12/13 12:48:44;;;;;;;3.27;1.50;;;;;;;;;;5031359;28;20208;-62
2023/12/13 12:51:11;;;;;;;5.90;1.90;;;;;;;;;;5025114;28;20219;-66
2023/12/13 12:53:38;;;;;;;6.33;2.00;;;;;;;;;;5019819;28;20213;-65
2023/12/13 12:56:07;;;;;;;4.70;2.03;;;;;;;;;;5023813;28;20212;-66
2023/12/13 12:58:36;;;;;;;8.50;2.40;;;;;;;;;;5025300;28;20199;-68
2023/12/13 13:01:04;;;;;;;5.53;1.97;;;;;;;;;;5026742;28;20341;-66
2023/12/13 13:03:30;;;;;;;5.07;1.90;;;;;;;;;;5029413;28;20208;-65
2023/12/13 13:05:58;;;;;;;6.43;1.90;;;;;;;;;;5032388;28;20205;-65
2023/12/13 13:08:26;;;;;;;4.17;2.20;;;;;;;;;;5029638;28;20211;-65
2023/12/13 13:10:53;;;;;;;6.83;2.27;;;;;;;;;;5019633;28;20298;-65
2023/12/13 13:13:21;;;;;;;4.30;1.93;;;;;;;;;;5026491;28;20229;-65
2023/12/13 13:15:49;;;;;;;7.33;2.70;;;;;;;;;;5035592;28;20308;-65
2023/12/13 13:18:17;;;;;;;4.10;2.00;;;;;;;;;;5033566;28;20253;-65
2023/12/13 13:20:44;;;;;;;7.00;2.13;;;;;;;;;;5036836;28;20231;-65
2023/12/13 13:23:11;;;;;;;7.77;1.83;;;;;;;;;;5032242;28;20227;-65
2023/12/13 13:25:39;;;;;;;3.60;1.73;;;;;;;;;;5032118;28;20207;-65
2023/12/13 13:28:06;;;;;;;5.27;1.90;;;;;;;;;;5035765;28;20210;-65
2023/12/13 13:30:33;;;;;;;7.93;2.60;;;;;;;;;;5034586;28;20196;-65
2023/12/13 13:33:03;;;;;;;5.87;2.10;;;;;;;;;;5035075;28;20288;-65
2023/12/13 13:35:30;;;;;;;4.27;2.27;;;;;;;;;;5034338;28;20236;-65
2023/12/13 13:37:57;;;;;;;5.77;2.20;;;;;;;;;;5038819;28;20267;-66
2023/12/13 13:40:25;;;;;;;7.07;2.10;;;;;;;;;;5037753;28;20328;-65
2023/12/13 13:42:52;;;;;;;5.00;1.70;;;;;;;;;;5033766;28;20215;-65
2023/12/13 13:45:21;;;;;;;3.17;1.70;;;;;;;;;;5036941;28;20196;-66
2023/12/13 13:47:49;;;;;;;5.57;1.83;;;;;;;;;;5035981;28;20239;-66
2023/12/13 13:50:18;;;;;;;5.33;1.50;;;;;;;;;;5041232;28;20227;-66
2023/12/13 13:52:45;;;;;;;3.40;1.60;;;;;;;;;;5037465;28;20200;-65
2023/12/13 13:55:14;;;;;;;5.37;1.47;;;;;;;;;;5033651;28;20206;-65
2023/12/13 13:57:41;;;;;;;3.73;1.47;;;;;;;;;;5031852;28;20200;-66
2023/12/13 14:00:11;;;;;;;3.23;1.40;;;;;;;;;;5039390;28;20211;-66
2023/12/13 14:02:39;;;;;;;6.00;1.70;;;;;;;;;;5039084;28;20204;-61
2023/12/13 14:05:06;;;;;;;3.53;1.60;;;;;;;;;;5042279;28;20235;-63
2023/12/13 14:07:35;;;;;;;3.97;1.73;;;;;;;;;;5038346;28;20207;-61
2023/12/13 14:10:03;;;;;;;4.57;1.50;;;;;;;;;;5047030;28;20290;-62
2023/12/13 14:12:31;;;;;;;4.53;1.70;;;;;;;;;;5039839;28;20204;-61
2023/12/13 14:14:58;;;;;;;5.23;1.60;;;;;;;;;;5046488;28;20314;-62
2023/12/13 14:17:28;;;;;;;3.57;1.63;;;;;;;;;;5042220;28;20295;-61
2023/12/13 14:19:55;;;;;;;4.93;1.70;;;;;;;;;;5044567;28;20203;-62
2023/12/13 14:22:22;;;;;;;4.30;2.10;;;;;;;;;;5041723;28;20200;-62
2023/12/13 14:24:51;;;;;;;3.13;1.40;;;;;;;;;;5046311;28;20227;-62
2023/12/13 14:27:19;;;;;;;2.87;1.40;;;;;;;;;;5043054;28;20211;-62
2023/12/13 14:29:47;;;;;;;3.17;1.37;;;;;;;;;;5040570;28;20215;-62
2023/12/13 14:32:14;;;;;;;2.43;1.40;;;;;;;;;;5046294;28;20216;-62
2023/12/13 14:34:41;;;;;;;4.37;1.80;;;;;;;;;;5047150;28;20257;-62
2023/12/13 14:37:09;;;;;;;2.53;1.20;;;;;;;;;;5048216;28;20246;-62
2023/12/13 14:39:36;;;;;;;2.57;1.20;;;;;;;;;;5035498;28;20214;-62
2023/12/13 14:42:05;;;;;;;5.53;1.80;;;;;;;;;;5032351;28;20262;-61
2023/12/13 14:44:32;;;;;;;5.70;1.80;;;;;;;;;;5036332;28;20425;-62